Terminal Aerodrome Forecast
Issued by NWS Charleston, WV

Home | Current Version | Previous Version | Text Only | Print | Product List | Glossary On
Versions: 1 2 3 4 5 6 7 8 9 10 11 12 13 14 15 16 17 18 19 20 21 22 23 24
198
FTUS41 KRLX 240524
TAFPKB
TAF
KPKB 240524Z 2406/2506 25005KT 6SM BR SCT007 OVC050
      TEMPO 2406/2407 3SM -SHRA BR BKN012
     FM240900 29004KT P6SM BKN010
     FM241100 29004KT P6SM SCT020=

USA.gov is the U.S. government's official web portal to all federal, state and local government web resources and services.